Orbital elements of FENGYUN 1C DEB
| Launched | 9 May 1999 |
| Flight ended | – |
| Launch site | Taiyuan Space Center, PRC |
| Owner | People's Republic of China |
| NORAD ID | 30115 |
| Date fetched |
Epoch osculation |
Inc. [°] |
Ecc. | RA asc node [hr] |
Arg Peri. [°] |
Mean anom [°] |
Mean motion [rev/day] |
Abs. mag |
| Date fetched |
Epoch osculation |
Inc. [°] |
Ecc. | RA asc node [hr] |
Arg Peri. [°] |
Mean anom [°] |
Mean motion [rev/day] |
Abs. mag |
| 2026 May 05 17:57 | 2026 May 05 07:16:43 | 98.6054 | 0.00665 | 10.2562 | 6.9700 | 52.5883 | 14.20398 | – |
| 2026 May 04 17:57 | 2026 Apr 30 14:17:58 | 98.6057 | 0.00670 | 9.9507 | 20.6093 | 52.5883 | 14.20398 | – |
| 2026 May 03 17:57 | 2026 Apr 30 14:17:58 | 98.6057 | 0.00670 | 9.9507 | 20.6093 | 52.5883 | 14.20398 | – |
| 2026 May 02 17:57 | 2026 Apr 30 14:17:58 | 98.6057 | 0.00670 | 9.9507 | 20.6093 | 52.5883 | 14.20398 | – |
| 2026 May 01 17:56 | 2026 Apr 30 14:17:58 | 98.6057 | 0.00670 | 9.9507 | 20.6093 | 52.5883 | 14.20398 | – |
| 2026 Apr 30 17:56 | 2026 Apr 30 14:17:58 | 98.6057 | 0.00670 | 9.9507 | 20.6093 | 52.5883 | 14.20398 | – |
| 2026 Apr 29 17:57 | 2026 Apr 24 00:47:22 | 98.6067 | 0.00675 | 9.5248 | 39.4694 | 52.5883 | 14.20398 | – |
| 2026 Apr 28 17:56 | 2026 Apr 24 00:47:22 | 98.6067 | 0.00675 | 9.5248 | 39.4694 | 52.5883 | 14.20398 | – |
| 2026 Apr 27 17:58 | 2026 Apr 24 00:47:22 | 98.6067 | 0.00675 | 9.5248 | 39.4694 | 52.5883 | 14.20398 | – |
| 2026 Apr 26 17:58 | 2026 Apr 24 00:47:22 | 98.6067 | 0.00675 | 9.5248 | 39.4694 | 52.5883 | 14.20398 | – |
| 2026 Apr 25 17:58 | 2026 Apr 24 00:47:22 | 98.6067 | 0.00675 | 9.5248 | 39.4694 | 52.5883 | 14.20398 | – |
| 2026 Apr 24 17:59 | 2026 Apr 24 00:47:22 | 98.6067 | 0.00675 | 9.5248 | 39.4694 | 52.5883 | 14.20398 | – |
| 2026 Apr 23 17:57 | 2026 Apr 19 00:35:46 | 98.6076 | 0.00679 | 9.1997 | 53.7637 | 52.5883 | 14.20398 | – |
| 2026 Apr 22 17:57 | 2026 Apr 19 00:35:46 | 98.6076 | 0.00679 | 9.1997 | 53.7637 | 52.5883 | 14.20398 | – |
| 2026 Apr 21 17:57 | 2026 Apr 19 00:35:46 | 98.6076 | 0.00679 | 9.1997 | 53.7637 | 52.5883 | 14.20398 | – |
| 2026 Apr 20 17:57 | 2026 Apr 19 00:35:46 | 98.6076 | 0.00679 | 9.1997 | 53.7637 | 52.5883 | 14.20398 | – |
| 2026 Apr 19 17:58 | 2026 Apr 19 00:35:46 | 98.6076 | 0.00679 | 9.1997 | 53.7637 | 52.5883 | 14.20398 | – |
| 2026 Apr 18 17:56 | 2026 Apr 13 00:53:18 | 98.6084 | 0.00683 | 8.8111 | 70.7666 | 52.5883 | 14.20398 | – |
| 2026 Apr 16 17:57 | 2026 Apr 13 00:53:18 | 98.6084 | 0.00683 | 8.8111 | 70.7666 | 52.5883 | 14.20398 | – |
| 2026 Apr 14 17:57 | 2026 Apr 13 00:53:18 | 98.6084 | 0.00683 | 8.8111 | 70.7666 | 52.5883 | 14.20398 | – |
| 2026 Apr 13 17:57 | 2026 Apr 13 00:53:18 | 98.6084 | 0.00683 | 8.8111 | 70.7666 | 52.5883 | 14.20398 | – |
| 2026 Apr 12 17:57 | 2026 Apr 08 14:46:25 | 98.6088 | 0.00685 | 8.5241 | 83.3162 | 52.5883 | 14.20398 | – |
| 2026 Apr 11 17:57 | 2026 Apr 08 14:46:25 | 98.6088 | 0.00685 | 8.5241 | 83.3162 | 52.5883 | 14.20398 | – |
| 2026 Apr 10 17:58 | 2026 Apr 08 14:46:25 | 98.6088 | 0.00685 | 8.5241 | 83.3162 | 52.5883 | 14.20398 | – |
| 2026 Apr 09 18:01 | 2026 Apr 08 14:46:25 | 98.6088 | 0.00685 | 8.5241 | 83.3162 | 52.5883 | 14.20398 | – |
| 2026 Apr 08 17:57 | 2026 Apr 08 14:46:25 | 98.6088 | 0.00685 | 8.5241 | 83.3162 | 52.5883 | 14.20398 | – |